sensor_id;sensor_type;location;lat;lon;timestamp;temperature;humidity
46508;DHT22;32223;53.654;10.014;2022-08-21T00:01:49;15.40;99.90
46508;DHT22;32223;53.654;10.014;2022-08-21T00:04:14;15.40;99.90
46508;DHT22;32223;53.654;10.014;2022-08-21T00:06:40;15.30;99.90
46508;DHT22;32223;53.654;10.014;2022-08-21T00:09:07;15.20;99.90
46508;DHT22;32223;53.654;10.014;2022-08-21T00:11:35;15.20;99.90
46508;DHT22;32223;53.654;10.014;2022-08-21T00:14:02;15.30;99.90
46508;DHT22;32223;53.654;10.014;2022-08-21T00:16:27;15.30;99.90
46508;DHT22;32223;53.654;10.014;2022-08-21T00:18:53;15.20;99.90
46508;DHT22;32223;53.654;10.014;2022-08-21T00:21:19;15.30;99.90
46508;DHT22;32223;53.654;10.014;2022-08-21T00:23:44;15.30;99.90
46508;DHT22;32223;53.654;10.014;2022-08-21T00:26:10;15.30;99.90
46508;DHT22;32223;53.654;10.014;2022-08-21T00:28:36;15.40;99.90
46508;DHT22;32223;53.654;10.014;2022-08-21T00:31:02;15.40;99.90
46508;DHT22;32223;53.654;10.014;2022-08-21T00:33:30;15.50;99.90
46508;DHT22;32223;53.654;10.014;2022-08-21T00:35:56;15.60;99.90
46508;DHT22;32223;53.654;10.014;2022-08-21T00:38:22;15.60;99.90
46508;DHT22;32223;53.654;10.014;2022-08-21T00:40:51;15.60;99.90
46508;DHT22;32223;53.654;10.014;2022-08-21T00:43:31;15.50;99.90
46508;DHT22;32223;53.654;10.014;2022-08-21T00:45:57;15.50;99.90
46508;DHT22;32223;53.654;10.014;2022-08-21T00:48:24;15.60;99.90
46508;DHT22;32223;53.654;10.014;2022-08-21T00:53:21;15.40;99.90
46508;DHT22;32223;53.654;10.014;2022-08-21T00:55:48;15.30;99.90
46508;DHT22;32223;53.654;10.014;2022-08-21T00:58:14;15.20;99.90
46508;DHT22;32223;53.654;10.014;2022-08-21T01:00:42;15.20;99.90
46508;DHT22;32223;53.654;10.014;2022-08-21T01:03:11;15.10;99.90
46508;DHT22;32223;53.654;10.014;2022-08-21T01:05:39;15.00;99.90
46508;DHT22;32223;53.654;10.014;2022-08-21T01:08:06;15.00;99.90
46508;DHT22;32223;53.654;10.014;2022-08-21T01:10:33;15.00;99.90
46508;DHT22;32223;53.654;10.014;2022-08-21T01:12:59;15.00;99.90
46508;DHT22;32223;53.654;10.014;2022-08-21T01:15:31;14.90;99.90
46508;DHT22;32223;53.654;10.014;2022-08-21T01:17:59;14.90;99.90
46508;DHT22;32223;53.654;10.014;2022-08-21T01:20:25;14.90;99.90
46508;DHT22;32223;53.654;10.014;2022-08-21T01:22:51;14.80;99.90
46508;DHT22;32223;53.654;10.014;2022-08-21T01:25:18;14.90;99.90
46508;DHT22;32223;53.654;10.014;2022-08-21T01:27:45;14.80;99.90
46508;DHT22;32223;53.654;10.014;2022-08-21T01:30:17;14.80;99.90
46508;DHT22;32223;53.654;10.014;2022-08-21T01:32:43;14.70;99.90
46508;DHT22;32223;53.654;10.014;2022-08-21T01:35:12;14.70;99.90
46508;DHT22;32223;53.654;10.014;2022-08-21T01:37:37;14.70;99.90
46508;DHT22;32223;53.654;10.014;2022-08-21T01:40:04;14.70;99.90
46508;DHT22;32223;53.654;10.014;2022-08-21T01:42:31;14.70;99.90
46508;DHT22;32223;53.654;10.014;2022-08-21T01:44:57;14.60;99.90
46508;DHT22;32223;53.654;10.014;2022-08-21T01:47:22;14.60;99.90
46508;DHT22;32223;53.654;10.014;2022-08-21T01:49:48;14.50;99.90
46508;DHT22;32223;53.654;10.014;2022-08-21T01:52:14;14.50;99.90
46508;DHT22;32223;53.654;10.014;2022-08-21T01:54:40;14.50;99.90
46508;DHT22;32223;53.654;10.014;2022-08-21T01:57:06;14.50;99.90
46508;DHT22;32223;53.654;10.014;2022-08-21T01:59:33;14.40;99.90
46508;DHT22;32223;53.654;10.014;2022-08-21T02:01:59;14.40;99.90
46508;DHT22;32223;53.654;10.014;2022-08-21T02:04:25;14.40;99.90
46508;DHT22;32223;53.654;10.014;2022-08-21T02:06:51;14.40;99.90
46508;DHT22;32223;53.654;10.014;2022-08-21T02:09:18;14.40;99.90
46508;DHT22;32223;53.654;10.014;2022-08-21T02:11:43;14.40;99.90
46508;DHT22;32223;53.654;10.014;2022-08-21T02:14:13;14.40;99.90
46508;DHT22;32223;53.654;10.014;2022-08-21T02:16:41;14.40;99.90
46508;DHT22;32223;53.654;10.014;2022-08-21T02:19:08;14.40;99.90
46508;DHT22;32223;53.654;10.014;2022-08-21T02:21:34;14.30;99.90
46508;DHT22;32223;53.654;10.014;2022-08-21T02:24:00;14.30;99.90
46508;DHT22;32223;53.654;10.014;2022-08-21T02:26:26;14.20;99.90
46508;DHT22;32223;53.654;10.014;2022-08-21T02:28:52;14.20;99.90
46508;DHT22;32223;53.654;10.014;2022-08-21T02:31:18;14.10;99.90
46508;DHT22;32223;53.654;10.014;2022-08-21T02:33:44;14.20;99.90
46508;DHT22;32223;53.654;10.014;2022-08-21T02:36:11;14.20;99.90
46508;DHT22;32223;53.654;10.014;2022-08-21T02:38:39;14.20;99.90
46508;DHT22;32223;53.654;10.014;2022-08-21T02:41:11;14.10;99.90
46508;DHT22;32223;53.654;10.014;2022-08-21T02:43:37;14.20;99.90
46508;DHT22;32223;53.654;10.014;2022-08-21T02:46:03;14.20;99.90
46508;DHT22;32223;53.654;10.014;2022-08-21T02:48:31;14.10;99.90
46508;DHT22;32223;53.654;10.014;2022-08-21T02:51:02;14.10;99.90
46508;DHT22;32223;53.654;10.014;2022-08-21T02:53:29;14.00;99.90
46508;DHT22;32223;53.654;10.014;2022-08-21T02:55:57;14.00;99.90
46508;DHT22;32223;53.654;10.014;2022-08-21T02:58:27;13.90;99.90
46508;DHT22;32223;53.654;10.014;2022-08-21T03:00:54;13.90;99.90
46508;DHT22;32223;53.654;10.014;2022-08-21T03:03:20;13.80;99.90
46508;DHT22;32223;53.654;10.014;2022-08-21T03:05:47;13.90;99.90
46508;DHT22;32223;53.654;10.014;2022-08-21T03:08:14;13.80;99.90
46508;DHT22;32223;53.654;10.014;2022-08-21T03:10:48;13.80;99.90
46508;DHT22;32223;53.654;10.014;2022-08-21T03:13:15;13.80;99.90
46508;DHT22;32223;53.654;10.014;2022-08-21T03:15:41;13.80;99.90
46508;DHT22;32223;53.654;10.014;2022-08-21T03:18:09;13.90;99.90
46508;DHT22;32223;53.654;10.014;2022-08-21T03:20:37;13.90;99.90
46508;DHT22;32223;53.654;10.014;2022-08-21T03:23:03;13.90;99.90
46508;DHT22;32223;53.654;10.014;2022-08-21T03:25:30;13.90;99.90
46508;DHT22;32223;53.654;10.014;2022-08-21T03:28:00;13.90;99.90
46508;DHT22;32223;53.654;10.014;2022-08-21T03:30:26;13.80;99.90
46508;DHT22;32223;53.654;10.014;2022-08-21T03:32:52;13.80;99.90
46508;DHT22;32223;53.654;10.014;2022-08-21T03:35:18;13.80;99.90
46508;DHT22;32223;53.654;10.014;2022-08-21T03:37:44;13.80;99.90
46508;DHT22;32223;53.654;10.014;2022-08-21T03:40:17;13.80;99.90
46508;DHT22;32223;53.654;10.014;2022-08-21T03:42:43;13.80;99.90
46508;DHT22;32223;53.654;10.014;2022-08-21T03:45:12;13.80;99.90
46508;DHT22;32223;53.654;10.014;2022-08-21T03:47:38;13.80;99.90
46508;DHT22;32223;53.654;10.014;2022-08-21T03:50:05;13.90;99.90
46508;DHT22;32223;53.654;10.014;2022-08-21T03:52:30;13.90;99.90
46508;DHT22;32223;53.654;10.014;2022-08-21T03:54:56;13.90;99.90
46508;DHT22;32223;53.654;10.014;2022-08-21T03:57:22;13.80;99.90
46508;DHT22;32223;53.654;10.014;2022-08-21T03:59:47;13.80;99.90
46508;DHT22;32223;53.654;10.014;2022-08-21T04:02:16;13.80;99.90
46508;DHT22;32223;53.654;10.014;2022-08-21T04:04:43;13.80;99.90
46508;DHT22;32223;53.654;10.014;2022-08-21T04:07:09;13.80;99.90
46508;DHT22;32223;53.654;10.014;2022-08-21T04:09:34;13.70;99.90
46508;DHT22;32223;53.654;10.014;2022-08-21T04:12:01;13.80;99.90
46508;DHT22;32223;53.654;10.014;2022-08-21T04:14:27;13.80;99.90
46508;DHT22;32223;53.654;10.014;2022-08-21T04:16:53;13.80;99.90
46508;DHT22;32223;53.654;10.014;2022-08-21T04:19:18;13.80;99.90
46508;DHT22;32223;53.654;10.014;2022-08-21T04:21:44;13.70;99.90
46508;DHT22;32223;53.654;10.014;2022-08-21T04:24:10;13.70;99.90
46508;DHT22;32223;53.654;10.014;2022-08-21T04:26:37;13.70;99.90
46508;DHT22;32223;53.654;10.014;2022-08-21T04:29:04;13.60;99.90
46508;DHT22;32223;53.654;10.014;2022-08-21T04:31:34;13.60;99.90
46508;DHT22;32223;53.654;10.014;2022-08-21T04:33:59;13.70;99.90
46508;DHT22;32223;53.654;10.014;2022-08-21T04:36:25;13.70;99.90
46508;DHT22;32223;53.654;10.014;2022-08-21T04:38:51;13.80;99.90
46508;DHT22;32223;53.654;10.014;2022-08-21T04:41:17;13.80;99.90
46508;DHT22;32223;53.654;10.014;2022-08-21T04:43:43;13.90;99.90
46508;DHT22;32223;53.654;10.014;2022-08-21T04:46:09;14.00;99.90
46508;DHT22;32223;53.654;10.014;2022-08-21T04:48:35;14.00;99.90
46508;DHT22;32223;53.654;10.014;2022-08-21T04:53:38;14.10;99.90
46508;DHT22;32223;53.654;10.014;2022-08-21T04:56:09;14.20;99.90
46508;DHT22;32223;53.654;10.014;2022-08-21T04:58:37;14.30;99.90
46508;DHT22;32223;53.654;10.014;2022-08-21T05:01:05;14.30;99.90
46508;DHT22;32223;53.654;10.014;2022-08-21T05:03:33;14.30;99.90
46508;DHT22;32223;53.654;10.014;2022-08-21T05:05:59;14.30;99.90
46508;DHT22;32223;53.654;10.014;2022-08-21T05:08:27;14.40;99.90
46508;DHT22;32223;53.654;10.014;2022-08-21T05:10:54;14.40;99.90
46508;DHT22;32223;53.654;10.014;2022-08-21T05:13:20;14.40;99.90
46508;DHT22;32223;53.654;10.014;2022-08-21T05:15:46;14.40;99.90
46508;DHT22;32223;53.654;10.014;2022-08-21T05:18:12;14.50;99.90
46508;DHT22;32223;53.654;10.014;2022-08-21T05:20:38;14.60;99.90
46508;DHT22;32223;53.654;10.014;2022-08-21T05:23:12;14.70;99.90
46508;DHT22;32223;53.654;10.014;2022-08-21T05:25:38;14.80;99.90
46508;DHT22;32223;53.654;10.014;2022-08-21T05:28:05;14.90;99.90
46508;DHT22;32223;53.654;10.014;2022-08-21T05:30:32;15.00;99.90
46508;DHT22;32223;53.654;10.014;2022-08-21T05:32:59;15.10;99.90
46508;DHT22;32223;53.654;10.014;2022-08-21T05:35:25;15.20;99.90
46508;DHT22;32223;53.654;10.014;2022-08-21T05:37:51;15.30;99.90
46508;DHT22;32223;53.654;10.014;2022-08-21T05:40:16;15.40;99.90
46508;DHT22;32223;53.654;10.014;2022-08-21T05:42:43;15.50;99.90
46508;DHT22;32223;53.654;10.014;2022-08-21T05:45:09;15.60;99.90
46508;DHT22;32223;53.654;10.014;2022-08-21T05:47:34;15.60;99.90
46508;DHT22;32223;53.654;10.014;2022-08-21T05:50:00;15.80;99.90
46508;DHT22;32223;53.654;10.014;2022-08-21T05:52:26;15.90;99.90
46508;DHT22;32223;53.654;10.014;2022-08-21T05:54:52;16.00;99.90
46508;DHT22;32223;53.654;10.014;2022-08-21T05:57:19;16.20;99.90
46508;DHT22;32223;53.654;10.014;2022-08-21T05:59:45;16.30;99.90
46508;DHT22;32223;53.654;10.014;2022-08-21T06:02:11;16.30;99.90
46508;DHT22;32223;53.654;10.014;2022-08-21T06:04:39;16.50;99.90
46508;DHT22;32223;53.654;10.014;2022-08-21T06:07:05;16.50;99.90
46508;DHT22;32223;53.654;10.014;2022-08-21T06:09:31;16.60;99.90
46508;DHT22;32223;53.654;10.014;2022-08-21T06:11:56;16.70;99.90
46508;DHT22;32223;53.654;10.014;2022-08-21T06:14:22;16.70;99.90
46508;DHT22;32223;53.654;10.014;2022-08-21T06:16:47;16.70;99.90
46508;DHT22;32223;53.654;10.014;2022-08-21T06:19:13;16.80;99.90
46508;DHT22;32223;53.654;10.014;2022-08-21T06:21:39;17.00;99.90
46508;DHT22;32223;53.654;10.014;2022-08-21T06:24:05;17.20;99.90
46508;DHT22;32223;53.654;10.014;2022-08-21T06:26:32;17.40;99.90
46508;DHT22;32223;53.654;10.014;2022-08-21T06:28:58;17.70;99.90
46508;DHT22;32223;53.654;10.014;2022-08-21T06:31:25;17.70;99.90
46508;DHT22;32223;53.654;10.014;2022-08-21T06:33:52;17.70;99.90
46508;DHT22;32223;53.654;10.014;2022-08-21T06:36:19;17.60;99.90
46508;DHT22;32223;53.654;10.014;2022-08-21T06:38:46;17.60;99.90
46508;DHT22;32223;53.654;10.014;2022-08-21T06:41:12;17.60;99.90
46508;DHT22;32223;53.654;10.014;2022-08-21T06:43:38;17.70;99.90
46508;DHT22;32223;53.654;10.014;2022-08-21T06:46:03;17.80;99.90
46508;DHT22;32223;53.654;10.014;2022-08-21T06:48:29;17.90;99.90
46508;DHT22;32223;53.654;10.014;2022-08-21T06:50:58;18.00;99.90
46508;DHT22;32223;53.654;10.014;2022-08-21T06:53:24;18.10;99.90
46508;DHT22;32223;53.654;10.014;2022-08-21T06:55:50;18.20;99.90
46508;DHT22;32223;53.654;10.014;2022-08-21T06:58:16;18.40;99.90
46508;DHT22;32223;53.654;10.014;2022-08-21T07:00:45;18.40;99.90
46508;DHT22;32223;53.654;10.014;2022-08-21T07:05:44;18.70;99.90
46508;DHT22;32223;53.654;10.014;2022-08-21T07:08:09;18.90;99.90
46508;DHT22;32223;53.654;10.014;2022-08-21T07:10:35;19.00;99.90
46508;DHT22;32223;53.654;10.014;2022-08-21T07:13:00;19.10;99.90
46508;DHT22;32223;53.654;10.014;2022-08-21T07:15:29;19.20;99.90
46508;DHT22;32223;53.654;10.014;2022-08-21T07:17:55;19.40;99.90
46508;DHT22;32223;53.654;10.014;2022-08-21T07:20:22;19.40;99.90
46508;DHT22;32223;53.654;10.014;2022-08-21T07:22:47;19.40;99.90
46508;DHT22;32223;53.654;10.014;2022-08-21T07:25:14;19.40;99.90
46508;DHT22;32223;53.654;10.014;2022-08-21T07:27:40;19.50;99.90
46508;DHT22;32223;53.654;10.014;2022-08-21T07:30:06;19.60;99.90
46508;DHT22;32223;53.654;10.014;2022-08-21T07:32:32;19.80;99.90
46508;DHT22;32223;53.654;10.014;2022-08-21T07:34:58;19.90;99.90
46508;DHT22;32223;53.654;10.014;2022-08-21T07:37:24;20.10;99.90
46508;DHT22;32223;53.654;10.014;2022-08-21T07:39:49;20.30;99.90
46508;DHT22;32223;53.654;10.014;2022-08-21T07:42:16;20.30;99.90
46508;DHT22;32223;53.654;10.014;2022-08-21T07:44:42;20.30;99.90
46508;DHT22;32223;53.654;10.014;2022-08-21T07:47:08;20.30;99.90
46508;DHT22;32223;53.654;10.014;2022-08-21T07:49:34;20.40;99.90
46508;DHT22;32223;53.654;10.014;2022-08-21T07:51:59;20.50;99.90
46508;DHT22;32223;53.654;10.014;2022-08-21T07:54:25;20.60;99.90
46508;DHT22;32223;53.654;10.014;2022-08-21T07:56:51;20.60;99.90
46508;DHT22;32223;53.654;10.014;2022-08-21T07:59:17;20.70;99.90
46508;DHT22;32223;53.654;10.014;2022-08-21T08:01:42;20.70;99.90
46508;DHT22;32223;53.654;10.014;2022-08-21T08:04:08;20.80;99.90
46508;DHT22;32223;53.654;10.014;2022-08-21T08:06:34;20.90;99.90
46508;DHT22;32223;53.654;10.014;2022-08-21T08:08:59;21.00;99.90
46508;DHT22;32223;53.654;10.014;2022-08-21T08:11:29;21.10;99.90
46508;DHT22;32223;53.654;10.014;2022-08-21T08:13:55;21.20;99.90
46508;DHT22;32223;53.654;10.014;2022-08-21T08:16:22;21.20;99.90
46508;DHT22;32223;53.654;10.014;2022-08-21T08:18:48;21.30;99.90
46508;DHT22;32223;53.654;10.014;2022-08-21T08:21:14;21.30;99.90
46508;DHT22;32223;53.654;10.014;2022-08-21T08:23:40;21.40;99.90
46508;DHT22;32223;53.654;10.014;2022-08-21T08:26:06;21.40;99.90
46508;DHT22;32223;53.654;10.014;2022-08-21T08:28:32;21.60;99.90
46508;DHT22;32223;53.654;10.014;2022-08-21T08:30:59;21.60;99.90
46508;DHT22;32223;53.654;10.014;2022-08-21T08:33:26;21.70;99.90
46508;DHT22;32223;53.654;10.014;2022-08-21T08:35:52;21.70;99.90
46508;DHT22;32223;53.654;10.014;2022-08-21T08:38:20;21.80;99.90
46508;DHT22;32223;53.654;10.014;2022-08-21T08:40:52;21.70;99.90
46508;DHT22;32223;53.654;10.014;2022-08-21T08:43:19;21.90;99.90
46508;DHT22;32223;53.654;10.014;2022-08-21T08:45:50;21.90;99.90
46508;DHT22;32223;53.654;10.014;2022-08-21T08:50:57;22.10;99.90
46508;DHT22;32223;53.654;10.014;2022-08-21T08:53:38;22.20;99.90
46508;DHT22;32223;53.654;10.014;2022-08-21T08:56:09;22.30;99.90
46508;DHT22;32223;53.654;10.014;2022-08-21T08:58:39;22.50;99.90
46508;DHT22;32223;53.654;10.014;2022-08-21T09:01:19;22.60;99.90
46508;DHT22;32223;53.654;10.014;2022-08-21T09:03:47;22.60;99.90
46508;DHT22;32223;53.654;10.014;2022-08-21T09:12:06;22.60;99.90
46508;DHT22;32223;53.654;10.014;2022-08-21T09:28:41;22.90;99.90
46508;DHT22;32223;53.654;10.014;2022-08-21T09:31:16;23.00;99.90
46508;DHT22;32223;53.654;10.014;2022-08-21T09:33:46;23.00;99.90
46508;DHT22;32223;53.654;10.014;2022-08-21T09:36:12;23.30;99.90
46508;DHT22;32223;53.654;10.014;2022-08-21T09:38:53;23.40;99.90
46508;DHT22;32223;53.654;10.014;2022-08-21T09:41:30;23.40;99.90
46508;DHT22;32223;53.654;10.014;2022-08-21T09:43:56;23.60;99.90
46508;DHT22;32223;53.654;10.014;2022-08-21T09:46:25;23.70;99.90
46508;DHT22;32223;53.654;10.014;2022-08-21T09:48:53;23.70;99.90
46508;DHT22;32223;53.654;10.014;2022-08-21T09:51:23;23.90;99.90
46508;DHT22;32223;53.654;10.014;2022-08-21T09:54:00;24.00;99.90
46508;DHT22;32223;53.654;10.014;2022-08-21T09:56:38;23.90;99.90
46508;DHT22;32223;53.654;10.014;2022-08-21T09:59:32;23.90;99.90
46508;DHT22;32223;53.654;10.014;2022-08-21T10:02:03;23.80;99.90
46508;DHT22;32223;53.654;10.014;2022-08-21T10:04:40;23.90;99.90
46508;DHT22;32223;53.654;10.014;2022-08-21T10:07:13;24.00;99.90
46508;DHT22;32223;53.654;10.014;2022-08-21T10:09:40;24.20;99.90
46508;DHT22;32223;53.654;10.014;2022-08-21T10:12:16;24.00;99.90
46508;DHT22;32223;53.654;10.014;2022-08-21T10:18:11;24.30;99.90
46508;DHT22;32223;53.654;10.014;2022-08-21T10:20:23;24.40;99.90
46508;DHT22;32223;53.654;10.014;2022-08-21T10:22:57;24.30;99.90
46508;DHT22;32223;53.654;10.014;2022-08-21T10:28:37;23.80;99.90
46508;DHT22;32223;53.654;10.014;2022-08-21T10:31:40;23.80;99.90
46508;DHT22;32223;53.654;10.014;2022-08-21T10:36:46;23.40;99.90
46508;DHT22;32223;53.654;10.014;2022-08-21T10:39:31;23.40;99.90
46508;DHT22;32223;53.654;10.014;2022-08-21T10:44:51;22.90;99.90
46508;DHT22;32223;53.654;10.014;2022-08-21T10:47:37;22.90;99.90
46508;DHT22;32223;53.654;10.014;2022-08-21T10:50:39;23.20;99.90
46508;DHT22;32223;53.654;10.014;2022-08-21T10:53:28;23.50;99.90
46508;DHT22;32223;53.654;10.014;2022-08-21T11:01:52;23.40;99.90
46508;DHT22;32223;53.654;10.014;2022-08-21T11:07:03;23.50;99.90
46508;DHT22;32223;53.654;10.014;2022-08-21T11:09:31;23.80;99.90
46508;DHT22;32223;53.654;10.014;2022-08-21T11:17:13;24.30;99.90
46508;DHT22;32223;53.654;10.014;2022-08-21T11:22:37;24.50;99.90
46508;DHT22;32223;53.654;10.014;2022-08-21T11:25:17;24.50;99.00
46508;DHT22;32223;53.654;10.014;2022-08-21T11:47:30;25.90;93.10
46508;DHT22;32223;53.654;10.014;2022-08-21T11:50:12;26.00;93.00
46508;DHT22;32223;53.654;10.014;2022-08-21T11:52:51;26.30;92.50
46508;DHT22;32223;53.654;10.014;2022-08-21T11:55:29;26.30;92.20
46508;DHT22;32223;53.654;10.014;2022-08-21T12:00:28;26.90;92.00
46508;DHT22;32223;53.654;10.014;2022-08-21T12:02:58;27.00;90.50
46508;DHT22;32223;53.654;10.014;2022-08-21T12:05:36;27.20;89.40
46508;DHT22;32223;53.654;10.014;2022-08-21T12:11:03;26.80;86.70
46508;DHT22;32223;53.654;10.014;2022-08-21T12:13:32;26.50;86.30
46508;DHT22;32223;53.654;10.014;2022-08-21T12:16:14;26.20;85.80
46508;DHT22;32223;53.654;10.014;2022-08-21T12:18:42;25.80;87.60
46508;DHT22;32223;53.654;10.014;2022-08-21T12:21:20;25.80;88.00
46508;DHT22;32223;53.654;10.014;2022-08-21T12:24:03;26.10;89.70
46508;DHT22;32223;53.654;10.014;2022-08-21T12:26:35;26.70;88.30
46508;DHT22;32223;53.654;10.014;2022-08-21T12:31:49;27.90;82.00
46508;DHT22;32223;53.654;10.014;2022-08-21T12:34:15;27.80;81.50
46508;DHT22;32223;53.654;10.014;2022-08-21T12:36:48;27.80;81.70
46508;DHT22;32223;53.654;10.014;2022-08-21T12:39:26;27.90;81.80
46508;DHT22;32223;53.654;10.014;2022-08-21T12:42:20;28.10;81.40
46508;DHT22;32223;53.654;10.014;2022-08-21T12:44:55;28.20;80.80
46508;DHT22;32223;53.654;10.014;2022-08-21T12:47:36;28.20;79.50
46508;DHT22;32223;53.654;10.014;2022-08-21T12:50:17;28.50;78.80
46508;DHT22;32223;53.654;10.014;2022-08-21T12:52:51;28.80;77.80
46508;DHT22;32223;53.654;10.014;2022-08-21T12:55:30;28.20;77.60
46508;DHT22;32223;53.654;10.014;2022-08-21T12:57:56;28.30;77.10
46508;DHT22;32223;53.654;10.014;2022-08-21T13:00:25;28.70;76.40
46508;DHT22;32223;53.654;10.014;2022-08-21T13:02:53;29.20;74.50
46508;DHT22;32223;53.654;10.014;2022-08-21T13:07:50;28.40;74.30
46508;DHT22;32223;53.654;10.014;2022-08-21T13:10:26;27.80;74.60
46508;DHT22;32223;53.654;10.014;2022-08-21T13:13:04;27.50;75.00
46508;DHT22;32223;53.654;10.014;2022-08-21T13:15:39;27.10;74.70
46508;DHT22;32223;53.654;10.014;2022-08-21T13:18:06;26.60;75.90
46508;DHT22;32223;53.654;10.014;2022-08-21T13:20:35;27.50;75.80
46508;DHT22;32223;53.654;10.014;2022-08-21T13:23:06;28.90;72.40
46508;DHT22;32223;53.654;10.014;2022-08-21T13:25:35;30.40;70.60
46508;DHT22;32223;53.654;10.014;2022-08-21T13:28:12;32.10;67.10
46508;DHT22;32223;53.654;10.014;2022-08-21T13:31:00;33.00;63.90
46508;DHT22;32223;53.654;10.014;2022-08-21T13:33:29;33.70;61.40
46508;DHT22;32223;53.654;10.014;2022-08-21T13:38:24;34.30;56.90
46508;DHT22;32223;53.654;10.014;2022-08-21T13:41:18;34.50;56.20
46508;DHT22;32223;53.654;10.014;2022-08-21T13:43:48;33.40;56.10
46508;DHT22;32223;53.654;10.014;2022-08-21T13:46:15;31.50;56.50
46508;DHT22;32223;53.654;10.014;2022-08-21T13:48:41;30.70;57.60
46508;DHT22;32223;53.654;10.014;2022-08-21T13:51:09;31.00;58.50
46508;DHT22;32223;53.654;10.014;2022-08-21T13:53:36;31.70;58.00
46508;DHT22;32223;53.654;10.014;2022-08-21T13:56:32;33.20;56.10
46508;DHT22;32223;53.654;10.014;2022-08-21T13:59:00;34.30;54.80
46508;DHT22;32223;53.654;10.014;2022-08-21T14:04:20;34.90;53.60
46508;DHT22;32223;53.654;10.014;2022-08-21T14:06:48;34.90;53.00
46508;DHT22;32223;53.654;10.014;2022-08-21T14:09:35;35.70;53.30
46508;DHT22;32223;53.654;10.014;2022-08-21T14:12:26;35.10;52.80
46508;DHT22;32223;53.654;10.014;2022-08-21T14:14:54;35.70;52.80
46508;DHT22;32223;53.654;10.014;2022-08-21T14:17:33;36.10;52.60
46508;DHT22;32223;53.654;10.014;2022-08-21T14:19:59;36.50;52.20
46508;DHT22;32223;53.654;10.014;2022-08-21T14:22:43;37.10;49.70
46508;DHT22;32223;53.654;10.014;2022-08-21T14:28:39;36.20;50.40
46508;DHT22;32223;53.654;10.014;2022-08-21T14:30:46;36.40;50.20
46508;DHT22;32223;53.654;10.014;2022-08-21T14:33:29;36.10;50.80
46508;DHT22;32223;53.654;10.014;2022-08-21T14:35:56;36.20;51.10
46508;DHT22;32223;53.654;10.014;2022-08-21T14:38:24;35.80;50.70
46508;DHT22;32223;53.654;10.014;2022-08-21T14:41:04;35.60;50.60
46508;DHT22;32223;53.654;10.014;2022-08-21T14:43:32;36.10;50.70
46508;DHT22;32223;53.654;10.014;2022-08-21T14:45:58;36.10;50.50
46508;DHT22;32223;53.654;10.014;2022-08-21T14:48:23;36.30;50.20
46508;DHT22;32223;53.654;10.014;2022-08-21T14:50:49;35.20;50.40
46508;DHT22;32223;53.654;10.014;2022-08-21T14:53:15;34.30;52.30
46508;DHT22;32223;53.654;10.014;2022-08-21T14:55:41;33.40;52.40
46508;DHT22;32223;53.654;10.014;2022-08-21T14:58:26;32.20;53.50
46508;DHT22;32223;53.654;10.014;2022-08-21T15:00:52;31.10;54.90
46508;DHT22;32223;53.654;10.014;2022-08-21T15:03:19;31.00;55.60
46508;DHT22;32223;53.654;10.014;2022-08-21T15:05:47;31.80;55.60
46508;DHT22;32223;53.654;10.014;2022-08-21T15:08:13;32.70;54.10
46508;DHT22;32223;53.654;10.014;2022-08-21T15:10:38;32.90;53.10
46508;DHT22;32223;53.654;10.014;2022-08-21T15:13:05;31.80;53.90
46508;DHT22;32223;53.654;10.014;2022-08-21T15:15:35;30.80;56.00
46508;DHT22;32223;53.654;10.014;2022-08-21T15:18:03;30.10;57.30
46508;DHT22;32223;53.654;10.014;2022-08-21T15:20:29;29.60;57.70
46508;DHT22;32223;53.654;10.014;2022-08-21T15:22:55;30.00;58.20
46508;DHT22;32223;53.654;10.014;2022-08-21T15:25:21;31.10;57.00
46508;DHT22;32223;53.654;10.014;2022-08-21T15:27:47;32.30;54.80
46508;DHT22;32223;53.654;10.014;2022-08-21T15:30:13;33.10;54.00
46508;DHT22;32223;53.654;10.014;2022-08-21T15:32:39;33.10;53.90
46508;DHT22;32223;53.654;10.014;2022-08-21T15:35:07;32.70;53.70
46508;DHT22;32223;53.654;10.014;2022-08-21T15:37:32;32.60;55.30
46508;DHT22;32223;53.654;10.014;2022-08-21T15:39:58;33.10;53.80
46508;DHT22;32223;53.654;10.014;2022-08-21T15:42:25;33.50;53.60
46508;DHT22;32223;53.654;10.014;2022-08-21T15:44:55;34.00;52.80
46508;DHT22;32223;53.654;10.014;2022-08-21T15:47:24;33.70;52.70
46508;DHT22;32223;53.654;10.014;2022-08-21T15:49:50;33.40;53.00
46508;DHT22;32223;53.654;10.014;2022-08-21T15:52:18;33.70;54.10
46508;DHT22;32223;53.654;10.014;2022-08-21T15:54:44;33.90;52.60
46508;DHT22;32223;53.654;10.014;2022-08-21T15:57:13;34.20;52.50
46508;DHT22;32223;53.654;10.014;2022-08-21T15:59:42;34.60;51.20
46508;DHT22;32223;53.654;10.014;2022-08-21T16:02:16;35.10;51.40
46508;DHT22;32223;53.654;10.014;2022-08-21T16:04:42;35.30;50.30
46508;DHT22;32223;53.654;10.014;2022-08-21T16:07:08;35.40;50.50
46508;DHT22;32223;53.654;10.014;2022-08-21T16:09:34;34.80;51.10
46508;DHT22;32223;53.654;10.014;2022-08-21T16:12:01;35.00;50.70
46508;DHT22;32223;53.654;10.014;2022-08-21T16:14:28;35.40;50.00
46508;DHT22;32223;53.654;10.014;2022-08-21T16:16:54;35.00;49.90
46508;DHT22;32223;53.654;10.014;2022-08-21T16:19:20;35.30;49.50
46508;DHT22;32223;53.654;10.014;2022-08-21T16:21:46;35.30;49.30
46508;DHT22;32223;53.654;10.014;2022-08-21T16:24:12;34.90;49.90
46508;DHT22;32223;53.654;10.014;2022-08-21T16:26:38;35.10;49.60
46508;DHT22;32223;53.654;10.014;2022-08-21T16:29:04;34.80;49.80
46508;DHT22;32223;53.654;10.014;2022-08-21T16:31:32;34.20;50.60
46508;DHT22;32223;53.654;10.014;2022-08-21T16:33:58;34.00;51.10
46508;DHT22;32223;53.654;10.014;2022-08-21T16:36:25;33.40;51.70
46508;DHT22;32223;53.654;10.014;2022-08-21T16:38:52;32.70;52.00
46508;DHT22;32223;53.654;10.014;2022-08-21T16:41:20;31.70;53.20
46508;DHT22;32223;53.654;10.014;2022-08-21T16:43:46;31.10;54.20
46508;DHT22;32223;53.654;10.014;2022-08-21T16:46:14;30.40;55.20
46508;DHT22;32223;53.654;10.014;2022-08-21T16:48:41;30.50;56.30
46508;DHT22;32223;53.654;10.014;2022-08-21T16:51:10;30.80;55.00
46508;DHT22;32223;53.654;10.014;2022-08-21T16:53:36;30.80;55.50
46508;DHT22;32223;53.654;10.014;2022-08-21T16:56:02;30.90;55.10
46508;DHT22;32223;53.654;10.014;2022-08-21T16:58:35;30.70;55.30
46508;DHT22;32223;53.654;10.014;2022-08-21T17:01:04;30.60;55.90
46508;DHT22;32223;53.654;10.014;2022-08-21T17:03:33;30.50;56.00